Lake Dynasty — 3FZB2 — position and weather

sailwx.info

Track history (hours):
 
Tides and Currents Weather Stations Pressure Air Temp Water Temp Dewpoint Dewpoint Depression Visibility Wind Speed Wind Dir Waves Ship Positions

Lake Dynasty

Last reported at 2016-Jun-23 04:29 UTC. Time now 2016-Jun-25 03:33 UTC.
Position N 24°45' E 119°35'.

Length 182 m; draft 8.5 m.

Type: Cargo ship. MMSI: 370957000.

Date/timePositionNaut miles runAvg speedWind from/ knotsBaromVisibWave heightAir tempDewpointWater temp
2016-Jun-23 04:29N 24°45' E 119°35'1513.7
2016-Jun-23 03:21N 24°35' E 119°21'2513.9
2016-Jun-23 01:32N 24°22' E 118°57'2913.7
2016-Jun-22 23:24N 24°12' E 118°27'1012.3
2016-Jun-22 22:33N 24°12' E 118°16'1110.7
2016-Jun-22 21:33N 24°21' E 118°09'1010.0
2016-Jun-22 20:33N 24°30' E 118°04'2 1.8
2016-Jun-22 19:29N 24°32' E 118°05'0 0.0
2016-Jun-22 18:26N 24°32' E 118°05'0 0.0
2016-Jun-22 17:29N 24°32' E 118°05'0 0.0
2016-Jun-22 16:29N 24°32' E 118°05'0 0.0
2016-Jun-22 15:29N 24°32' E 118°05'0 0.0
2016-Jun-22 14:17N 24°32' E 118°05'0 0.0
2016-Jun-22 13:29N 24°32' E 118°05'0 0.0
2016-Jun-22 12:17N 24°32' E 118°05'0 0.0
2016-Jun-22 11:05N 24°32' E 118°05'0 0.0
2016-Jun-22 10:23N 24°32' E 118°05'0 0.0
2016-Jun-22 09:29N 24°32' E 118°05'0 0.0
2016-Jun-22 08:29N 24°32' E 118°05'0 0.0
2016-Jun-22 07:29N 24°32' E 118°05'0 0.0
2016-Jun-22 06:23N 24°32' E 118°05'0 0.0
2016-Jun-22 04:29N 24°32' E 118°05'0 0.0
2016-Jun-22 03:23N 24°32' E 118°05'0 0.0
2016-Jun-22 02:08N 24°32' E 118°05'0 0.0
2016-Jun-22 01:14N 24°32' E 118°05'0 0.0
2016-Jun-22 00:17N 24°32' E 118°05'0 0.0
2016-Jun-21 23:29N 24°32' E 118°05'0 0.0
2016-Jun-21 22:26N 24°32' E 118°05'0 0.0
2016-Jun-21 21:29N 24°32' E 118°05'0 0.0
2016-Jun-21 20:29N 24°32' E 118°05'0 0.0
2016-Jun-21 19:32N 24°32' E 118°05'0 0.0
2016-Jun-21 18:32N 24°32' E 118°05'0 0.0
2016-Jun-21 17:29N 24°32' E 118°05'0 0.0
2016-Jun-21 16:29N 24°32' E 118°05'0 0.0
2016-Jun-21 15:29N 24°32' E 118°05'0 0.0
2016-Jun-21 14:17N 24°32' E 118°05'0 0.0
2016-Jun-21 13:29N 24°32' E 118°05'0 0.0
2016-Jun-21 12:29N 24°32' E 118°05'0 0.0
2016-Jun-21 11:05N 24°32' E 118°05'0 0.1
2016-Jun-21 10:33N 24°32' E 118°05'6 6.2
2016-Jun-21 09:33N 24°26' E 118°03'8 8.0
2016-Jun-21 08:33N 24°21' E 118°10'6 6.4
2016-Jun-21 07:33N 24°15' E 118°12'9 4.7
2016-Jun-21 05:33N 24°08' E 118°20'10 9.6
2016-Jun-21 04:33N 24°00' E 118°26'  
Track history (hours):
 
Tides and Currents Weather Stations Pressure Air Temp Water Temp Dewpoint Dewpoint Depression Visibility Wind Speed Wind Dir Waves Ship Positions

Lake Dynasty

Last reported at 2016-Jun-23 04:29 UTC. Time now 2016-Jun-25 03:33 UTC.
Position N 24°45' E 119°35'.

Length 182 m; draft 8.5 m.

Type: Cargo ship. MMSI: 370957000.

Date/timePositionNaut miles runAvg speedWind from/ knotsBaromVisibWave heightAir tempDewpointWater temp
2016-Jun-23 04:29N 24°45' E 119°35'1513.7
2016-Jun-23 03:21N 24°35' E 119°21'2513.9
2016-Jun-23 01:32N 24°22' E 118°57'2913.7
2016-Jun-22 23:24N 24°12' E 118°27'1012.3
2016-Jun-22 22:33N 24°12' E 118°16'1110.7
2016-Jun-22 21:33N 24°21' E 118°09'1010.0
2016-Jun-22 20:33N 24°30' E 118°04'2 1.8
2016-Jun-22 19:29N 24°32' E 118°05'0 0.0
2016-Jun-22 18:26N 24°32' E 118°05'0 0.0
2016-Jun-22 17:29N 24°32' E 118°05'0 0.0
2016-Jun-22 16:29N 24°32' E 118°05'0 0.0
2016-Jun-22 15:29N 24°32' E 118°05'0 0.0
2016-Jun-22 14:17N 24°32' E 118°05'0 0.0
2016-Jun-22 13:29N 24°32' E 118°05'0 0.0
2016-Jun-22 12:17N 24°32' E 118°05'0 0.0
2016-Jun-22 11:05N 24°32' E 118°05'0 0.0
2016-Jun-22 10:23N 24°32' E 118°05'0 0.0
2016-Jun-22 09:29N 24°32' E 118°05'0 0.0
2016-Jun-22 08:29N 24°32' E 118°05'0 0.0
2016-Jun-22 07:29N 24°32' E 118°05'0 0.0
2016-Jun-22 06:23N 24°32' E 118°05'0 0.0
2016-Jun-22 04:29N 24°32' E 118°05'0 0.0
2016-Jun-22 03:23N 24°32' E 118°05'0 0.0
2016-Jun-22 02:08N 24°32' E 118°05'0 0.0
2016-Jun-22 01:14N 24°32' E 118°05'0 0.0
2016-Jun-22 00:17N 24°32' E 118°05'0 0.0
2016-Jun-21 23:29N 24°32' E 118°05'0 0.0
2016-Jun-21 22:26N 24°32' E 118°05'0 0.0
2016-Jun-21 21:29N 24°32' E 118°05'0 0.0
2016-Jun-21 20:29N 24°32' E 118°05'0 0.0
2016-Jun-21 19:32N 24°32' E 118°05'0 0.0
2016-Jun-21 18:32N 24°32' E 118°05'0 0.0
2016-Jun-21 17:29N 24°32' E 118°05'0 0.0
2016-Jun-21 16:29N 24°32' E 118°05'0 0.0
2016-Jun-21 15:29N 24°32' E 118°05'0 0.0
2016-Jun-21 14:17N 24°32' E 118°05'0 0.0
2016-Jun-21 13:29N 24°32' E 118°05'0 0.0
2016-Jun-21 12:29N 24°32' E 118°05'0 0.0
2016-Jun-21 11:05N 24°32' E 118°05'0 0.1
2016-Jun-21 10:33N 24°32' E 118°05'6 6.2
2016-Jun-21 09:33N 24°26' E 118°03'8 8.0
2016-Jun-21 08:33N 24°21' E 118°10'6 6.4
2016-Jun-21 07:33N 24°15' E 118°12'9 4.7
2016-Jun-21 05:33N 24°08' E 118°20'10 9.6
2016-Jun-21 04:33N 24°00' E 118°26'  

Dump ship's entire track history